Latest Weather Observations for South Johnstone

IDQ60801

Issued at 9:02 pm EST Tuesday 3 March 2015 (issued every 30 minutes, with the page automatically refreshed every 10 minutes)

About weather observations | Map of weather stations | Latest weather observations for QLD | Other Formats
Station Details ID: 032037 Name: SOUTH JOHNSTONE EXP STN Lat: -17.61 Lon: 146.00 Height: 18.3 m
Data from the previous 72 hours. | See also: Recent months at South Johnstone
Date/Time
EST
Temp
°C
App
Temp
°C
Dew
Point
Rel
Hum
%
Delta-T
°C
Wind Press
QNH
hPa
Press
MSL
hPa
Rain
since 9 am
mm
Dir
 
Spd
km/h
Gust
km/h
Spd
kts
Gust
kts
03/09:00pm 27.1 29.3 21.1 69 4.0 SSW 11 17 6 9 1011.3 1011.2 0.0
03/08:30pm 27.1 30.0 21.1 69 4.0 SSW 7 9 4 5 1011.1 - 0.0
03/08:00pm 26.9 29.9 21.3 71 3.7 S 7 9 4 5 1010.9 - 0.0
03/07:30pm 26.9 30.1 21.3 71 3.7 S 6 9 3 5 1010.5 - 0.0
03/07:00pm 27.5 30.0 21.0 67 4.3 SSW 9 13 5 7 1010.1 - 0.0
03/06:30pm 27.5 30.7 21.7 70 3.9 S 7 9 4 5 1009.7 - 0.0
03/06:00pm 28.5 30.9 21.6 66 4.6 SSE 11 19 6 10 1009.6 1009.5 0.0
03/05:30pm 29.0 30.4 21.0 62 5.3 SSE 15 26 8 14 1009.5 - 0.0
03/05:00pm 29.3 30.6 21.7 63 5.1 SSE 17 24 9 13 1009.1 - 0.0
03/04:30pm 29.8 30.5 21.5 61 5.6 SE 20 32 11 17 1009.0 - 0.0
03/04:00pm 29.9 30.8 21.6 61 5.6 SE 19 32 10 17 1008.9 - 0.0
03/03:30pm 30.3 30.6 20.3 55 6.6 SSE 19 30 10 16 1009.1 - 0.0
03/03:00pm 30.8 31.6 21.4 57 6.3 ESE 19 30 10 16 1009.0 1008.9 0.0
03/02:30pm 30.4 31.0 21.0 57 6.3 SE 19 28 10 15 1009.3 - 0.0
03/02:00pm 31.1 32.2 21.3 56 6.6 SE 17 28 9 15 1009.5 - 0.0
03/01:30pm 31.0 30.5 19.0 48 7.8 SSE 20 30 11 16 1010.0 - 0.0
03/01:00pm 31.7 32.7 20.3 50 7.6 SE 15 24 8 13 1010.2 - 0.0
03/12:30pm 31.9 32.3 19.8 48 8.0 SE 17 26 9 14 1010.5 - 0.0
03/12:00pm 31.0 31.4 19.8 51 7.4 S 17 28 9 15 1010.8 1010.7 0.0
03/11:30am 30.6 31.2 20.3 54 6.8 SE 17 28 9 15 1011.1 - 0.0
03/11:00am 31.2 31.3 19.1 48 7.9 SSE 17 24 9 13 1011.4 - 0.0
03/10:30am 30.5 31.3 20.6 55 6.6 SE 17 24 9 13 1011.6 - 0.0
03/10:00am 29.6 30.2 20.2 57 6.2 SSE 17 26 9 14 1011.7 - 0.0
03/09:30am 29.7 30.7 21.0 59 5.8 S 17 28 9 15 1011.5 - 0.0
03/09:00am 28.7 30.4 22.4 68 4.3 S 17 24 9 13 1011.5 1011.4 0.0
03/08:30am 28.5 30.8 22.0 68 4.4 SSW 13 20 7 11 1011.4 - 0.0
03/08:00am 26.5 32.0 23.4 83 2.1 CALM 0 7 0 4 1011.1 - 0.0
03/07:30am 24.7 29.9 22.9 90 1.2 CALM 0 0 0 0 1010.8 - 0.0
03/07:00am 24.2 28.7 23.0 93 0.8 WSW 4 9 2 5 1010.5 - 0.0
03/06:30am 23.2 27.4 22.5 96 0.5 W 4 7 2 4 1010.0 - 0.0
03/06:00am 23.2 28.3 22.6 96 0.4 CALM 0 0 0 0 1009.6 1009.5 0.0
03/05:30am 23.3 28.4 22.6 96 0.5 CALM 0 0 0 0 1009.3 - 0.0
03/05:00am 23.2 28.3 22.6 96 0.4 CALM 0 6 0 3 1009.1 - 0.0
03/04:30am 23.4 28.1 22.7 96 0.5 W 2 6 1 3 1009.1 - 0.0
03/04:00am 23.4 27.3 22.5 95 0.6 W 6 11 3 6 1009.1 - 0.0
03/03:30am 23.6 27.6 22.7 95 0.6 W 6 11 3 6 1009.0 - 0.0
03/03:00am 23.7 28.9 22.8 95 0.6 CALM 0 0 0 0 1009.1 1009.0 0.0
03/02:30am 23.5 28.6 22.6 95 0.6 CALM 0 0 0 0 1009.2 - 0.0
03/02:00am 23.5 28.6 22.6 95 0.6 CALM 0 6 0 3 1009.4 - 0.0
03/01:30am 23.6 27.5 22.6 94 0.7 W 6 13 3 7 1009.7 - 0.0
03/01:00am 23.7 28.0 22.7 94 0.7 W 4 11 2 6 1010.0 - 0.0
03/12:30am 23.8 27.5 22.6 93 0.8 WNW 7 11 4 6 1010.3 - 0.0
03/12:00am 23.7 27.7 22.7 94 0.7 WNW 6 9 3 5 1010.3 1010.2 0.0
 
Date/Time
EST
Temp
°C
App
Temp
°C
Dew
Point
Rel
Hum
%
Delta-T
°C
Wind Press
QNH
hPa
Press
MSL
hPa
Rain
since 9 am
mm
Dir
 
Spd
km/h
Gust
km/h
Spd
kts
Gust
kts
02/11:30pm 23.7 28.9 22.8 95 0.6 CALM 0 0 0 0 1010.4 - 0.0
02/11:00pm 23.8 27.5 22.6 93 0.8 WSW 7 11 4 6 1010.5 - 0.0
02/10:30pm 24.2 29.4 22.9 92 0.9 CALM 0 0 0 0 1010.4 - 0.0
02/10:00pm 24.1 28.0 22.9 93 0.8 W 7 9 4 5 1010.2 - 0.0
02/09:30pm 24.2 28.1 22.9 92 0.9 W 7 9 4 5 1010.2 - 0.0
02/09:00pm 24.7 28.2 22.9 90 1.2 WSW 9 13 5 7 1009.9 1009.8 0.0
02/08:30pm 25.0 29.0 23.1 89 1.3 WSW 7 11 4 6 1009.4 - 0.0
02/08:00pm 25.6 29.2 23.1 86 1.7 WSW 9 11 5 6 1008.8 - 0.0
02/07:30pm 26.2 31.8 23.6 85 1.8 CALM 0 0 0 0 1008.4 - 0.0
02/07:00pm 26.7 32.0 23.0 80 2.5 CALM 0 0 0 0 1008.2 - 0.0
02/06:30pm 28.1 32.9 22.8 73 3.6 ENE 2 7 1 4 1008.0 - 0.0
02/06:00pm 28.8 31.8 22.0 66 4.6 NE 9 15 5 8 1007.7 1007.6 0.0
02/05:30pm 29.3 31.5 21.9 64 5.0 NE 13 17 7 9 1007.7 - 0.0
02/05:00pm 29.7 31.9 21.9 63 5.3 NE 13 17 7 9 1007.3 - 0.0
02/04:30pm 30.1 32.1 22.3 63 5.3 NE 15 24 8 13 1007.0 - 0.0
02/04:00pm 30.4 32.9 21.8 60 5.8 ENE 11 19 6 10 1006.9 - 0.0
02/03:30pm 30.6 32.7 21.7 59 6.0 ENE 13 19 7 10 1006.7 - 0.0
02/03:00pm 30.6 32.6 22.2 61 5.7 ENE 15 19 8 10 1007.0 1006.9 0.0
02/02:30pm 30.9 33.5 22.6 61 5.7 ENE 13 17 7 9 1007.2 - 0.0
02/02:00pm 31.2 34.4 23.7 64 5.2 NE 13 20 7 11 1007.2 - 0.0
02/01:30pm 30.9 33.6 22.9 62 5.5 NE 13 20 7 11 1007.6 - 0.0
02/01:00pm 31.7 35.6 24.3 65 5.2 ENE 11 17 6 9 1008.0 - 0.0
02/12:30pm 31.7 35.3 23.8 63 5.5 NE 11 20 6 11 1008.1 - 0.0
02/12:00pm 30.9 34.9 23.1 63 5.4 NE 7 17 4 9 1008.6 1008.5 0.0
02/11:30am 31.3 34.8 22.2 58 6.2 NNE 7 13 4 7 1009.0 - 0.0
02/11:00am 30.6 34.1 21.9 59 5.9 N 6 13 3 7 1009.2 - 0.0
02/10:30am 30.3 33.9 22.0 61 5.6 NNE 6 13 3 7 1009.4 - 0.0
02/10:00am 29.9 35.6 23.8 70 4.2 CALM 0 6 0 3 1009.7 - 0.0
02/09:30am 29.4 34.3 23.1 69 4.3 NNE 2 7 1 4 1009.6 - 0.0
02/09:00am 29.0 35.0 24.3 76 3.3 CALM 0 6 0 3 1009.6 1009.5 0.0
02/08:30am 27.1 32.7 23.6 81 2.4 CALM 0 0 0 0 1009.5 - 0.0
02/08:00am 25.7 31.3 23.5 88 1.5 CALM 0 0 0 0 1009.3 - 0.0
02/07:30am 24.3 28.3 22.8 91 1.0 WNW 6 9 3 5 1009.1 - 0.0
02/07:00am 23.4 27.2 22.4 94 0.7 WNW 6 7 3 4 1008.8 - 0.0
02/06:30am 22.7 27.5 22.1 96 0.4 CALM 0 6 0 3 1008.6 - 0.0
02/06:00am 22.6 27.3 22.0 96 0.4 CALM 0 6 0 3 1008.2 1008.1 0.0
02/05:30am 22.8 26.6 22.4 98 0.3 WNW 6 9 3 5 1008.0 - 0.0
02/05:00am 23.1 27.7 22.5 96 0.4 W 2 6 1 3 1007.8 - 0.0
02/04:30am 23.1 28.1 22.5 96 0.4 CALM 0 0 0 0 1007.7 - 0.0
02/04:00am 23.2 28.3 22.6 96 0.4 CALM 0 0 0 0 1007.8 - 0.0
02/03:30am 23.4 28.5 22.7 96 0.5 CALM 0 2 0 1 1007.8 - 0.0
02/03:00am 23.4 27.4 22.7 96 0.5 W 6 11 3 6 1008.0 1007.9 0.0
02/02:30am 23.6 28.5 23.0 96 0.4 WNW 2 9 1 5 1008.1 - 0.0
02/02:00am 23.8 29.1 23.1 96 0.5 CALM 0 7 0 4 1008.4 - 0.0
02/01:30am 24.0 28.6 23.1 95 0.6 W 4 7 2 4 1008.7 - 0.0
02/01:00am 24.2 28.5 23.3 95 0.6 WNW 6 9 3 5 1009.2 - 0.0
02/12:30am 24.2 28.4 23.5 96 0.5 W 7 13 4 7 1009.4 - 0.0
02/12:00am 24.5 28.8 23.6 95 0.6 W 7 7 4 4 1009.5 1009.4 0.0
 
Date/Time
EST
Temp
°C
App
Temp
°C
Dew
Point
Rel
Hum
%
Delta-T
°C
Wind Press
QNH
hPa
Press
MSL
hPa
Rain
since 9 am
mm
Dir
 
Spd
km/h
Gust
km/h
Spd
kts
Gust
kts
01/11:30pm 24.8 29.4 23.8 94 0.7 WNW 6 7 3 4 1009.7 - 0.0
01/11:00pm 25.2 29.5 23.7 91 1.0 W 7 11 4 6 1010.0 - 0.0
01/10:30pm 25.3 29.7 23.8 91 1.0 WSW 7 11 4 6 1009.7 - 0.0
01/10:00pm 25.5 31.1 23.6 89 1.3 CALM 0 0 0 0 1009.5 - 0.0
01/09:30pm 25.7 30.6 23.7 89 1.4 WSW 4 9 2 5 1009.7 - 0.0
01/09:00pm 26.1 29.8 23.2 84 2.0 WSW 9 11 5 6 1009.4 1009.3 0.0
01/08:30pm 26.3 31.9 23.5 84 1.9 CALM 0 0 0 0 1008.9 - 0.0
01/08:00pm 26.6 32.1 23.4 82 2.2 CALM 0 0 0 0 1008.5 - 0.0
01/07:30pm 27.0 32.3 23.0 79 2.7 CALM 0 0 0 0 1008.3 - 0.0
01/07:00pm 27.6 32.8 22.9 75 3.2 CALM 0 6 0 3 1007.8 - 0.0
01/06:30pm 28.2 31.8 22.4 71 3.9 ENE 7 11 4 6 1007.7 - 0.0
01/06:00pm 28.8 31.6 22.3 68 4.4 ENE 11 13 6 7 1007.2 1007.1 0.0
01/05:30pm 29.1 31.1 21.5 63 5.1 NE 13 20 7 11 1007.0 - 0.0
01/05:00pm 29.8 31.7 22.0 63 5.3 ENE 15 20 8 11 1006.8 - 0.0
01/04:30pm 30.0 32.0 22.2 63 5.3 NE 15 22 8 12 1006.7 - 0.0
01/04:00pm 30.5 32.6 22.4 62 5.5 NE 15 22 8 12 1006.6 - 0.0
01/03:30pm 30.4 32.5 22.5 62 5.4 ENE 15 24 8 13 1006.6 - 0.0
01/03:00pm 30.9 33.3 22.9 62 5.5 NE 15 20 8 11 1006.7 1006.6 0.0
01/02:30pm 31.0 33.3 22.8 61 5.6 NE 15 22 8 12 1007.1 - 0.0
01/02:00pm 30.8 32.6 22.6 61 5.6 ENE 17 24 9 13 1007.4 - 0.0
01/01:30pm 31.1 34.3 23.1 62 5.5 NE 11 20 6 11 1007.6 - 0.0
01/01:00pm 31.4 34.9 23.5 63 5.5 ENE 11 19 6 10 1007.8 - 0.0
01/12:30pm 31.0 34.7 22.5 60 5.8 NE 7 15 4 8 1008.2 - 0.0
01/12:00pm 30.2 35.7 23.4 67 4.7 CALM 0 0 0 0 1008.7 1008.6 0.0
01/11:30am 29.9 34.6 21.9 62 5.4 CALM 0 0 0 0 1009.0 - 0.0
01/11:00am 30.5 35.5 23.2 65 5.0 N 2 7 1 4 1009.0 - 0.0
01/10:30am 30.3 34.1 22.4 62 5.4 ENE 6 11 3 6 1009.4 - 0.0
01/10:00am 29.7 34.6 23.1 67 4.5 ESE 2 7 1 4 1009.3 - 0.0
01/09:30am 29.3 34.2 23.0 69 4.3 WNW 2 7 1 4 1009.5 - 0.0
01/09:00am 28.6 34.3 23.7 75 3.4 CALM 0 4 0 2 1009.5 1009.4 0.0
01/08:30am 27.2 31.7 23.6 81 2.5 WSW 6 9 3 5 1009.5 - 0.0
01/08:00am 25.6 30.8 23.6 89 1.4 W 2 7 1 4 1009.0 - 0.0
01/07:30am 24.6 29.5 23.0 91 1.1 WNW 2 7 1 4 1008.8 - 0.0
01/07:00am 23.3 27.0 22.3 94 0.7 W 6 7 3 4 1008.3 - 0.0
01/06:30am 22.7 26.8 22.2 97 0.3 W 4 7 2 4 1008.1 - 0.0
01/06:00am 22.7 26.6 21.9 95 0.5 SW 4 9 2 5 1007.9 1007.8 0.0
01/05:30am 22.7 26.7 22.1 96 0.4 W 4 11 2 6 1007.7 - 0.0
01/05:00am 22.7 27.5 22.1 96 0.4 CALM 0 0 0 0 1007.8 - 0.0
01/04:30am 22.6 27.3 22.0 96 0.4 CALM 0 6 0 3 1007.9 - 0.0
01/04:00am 22.7 27.5 22.2 97 0.3 CALM 0 6 0 3 1007.6 - 0.0
01/03:30am 22.8 25.9 22.2 96 0.4 WSW 9 13 5 7 1007.6 - 0.0
01/03:00am 23.0 27.9 22.4 96 0.4 CALM 0 6 0 3 1007.5 1007.4 0.0
01/02:30am 23.2 28.3 22.6 96 0.4 CALM 0 4 0 2 1007.6 - 0.0
01/02:00am 23.3 28.0 22.7 96 0.4 W 2 6 1 3 1007.8 - 0.0
01/01:30am 23.4 27.8 22.8 96 0.4 WNW 4 11 2 6 1008.3 - 0.0
01/01:00am 23.5 27.3 22.8 96 0.5 WSW 7 15 4 8 1008.9 - 0.0
01/12:30am 23.7 28.6 23.0 96 0.5 NW 2 9 1 5 1009.1 - 0.0
01/12:00am 24.0 28.0 23.1 95 0.6 WNW 7 9 4 5 1009.3 1009.2 0.0
 
Date/Time
EST
Temp
°C
App
Temp
°C
Dew
Point
Rel
Hum
%
Delta-T
°C
Wind Press
QNH
hPa
Press
MSL
hPa
Rain
since 9 am
mm
Dir
 
Spd
km/h
Gust
km/h
Spd
kts
Gust
kts
28/11:30pm 24.1 28.3 23.1 94 0.7 W 6 9 3 5 1009.7 - 0.0
28/11:00pm 24.5 28.7 23.5 94 0.7 W 7 11 4 6 1009.7 - 0.0
28/10:30pm 24.6 28.4 23.4 93 0.8 WSW 9 13 5 7 1009.5 - 0.0
28/10:00pm 24.7 29.4 23.4 92 0.9 W 4 11 2 6 1009.6 - 0.0
28/09:30pm 25.0 30.7 23.7 92 0.9 CALM 0 4 0 2 1009.4 - 0.0

Other Formats:

Comma delimited format used in spreadsheet applications
http://www.bom.gov.au/fwo/IDQ60801/IDQ60801.95292.axf

JavaScript Object Notation format (JSON) in row-major order
http://www.bom.gov.au/fwo/IDQ60801/IDQ60801.95292.json